Time;durP1;ratioP1;P1;durP2;ratioP2;P2;SDS_P1;SDS_P2;PMS_P1;PMS_P2;Temp;Humidity;BMP_temperature;BMP_pressure;BME280_temperature;BME280_humidity;BME280_pressure;Samples;Min_cycle;Max_cycle;Signal;HPM_P1;HPM_P2
2023/04/06 00:00:12;;;;;;;6.20;5.60;;;;;;;;;;5075104;28;20026;-58
2023/04/06 00:02:38;;;;;;;6.72;5.38;;;;;;;;;;5074957;28;20036;-58
2023/04/06 00:05:05;;;;;;;11.65;7.05;;;;;;;;;;5075300;28;20029;-58
2023/04/06 00:07:33;;;;;;;7.53;6.35;;;;;;;;;;5075490;28;20028;-58
2023/04/06 00:09:59;;;;;;;7.40;5.72;;;;;;;;;;5075541;28;20043;-58
2023/04/06 00:12:25;;;;;;;6.38;5.75;;;;;;;;;;5074782;28;20020;-58
2023/04/06 00:14:51;;;;;;;11.23;5.57;;;;;;;;;;5074357;28;20048;-58
2023/04/06 00:17:18;;;;;;;6.68;5.40;;;;;;;;;;5074695;28;20029;-57
2023/04/06 00:19:44;;;;;;;8.45;5.53;;;;;;;;;;5074691;28;20048;-58
2023/04/06 00:22:10;;;;;;;8.15;5.93;;;;;;;;;;5074599;28;20060;-58
2023/04/06 00:24:36;;;;;;;6.32;5.68;;;;;;;;;;5074518;28;20020;-58
2023/04/06 00:27:02;;;;;;;6.05;5.30;;;;;;;;;;5075137;28;20029;-57
2023/04/06 00:29:28;;;;;;;7.65;5.88;;;;;;;;;;5074551;28;20032;-58
2023/04/06 00:31:54;;;;;;;8.80;6.55;;;;;;;;;;5074403;28;20044;-58
2023/04/06 00:34:20;;;;;;;15.65;5.55;;;;;;;;;;5074381;28;20122;-58
2023/04/06 00:36:46;;;;;;;8.90;7.22;;;;;;;;;;5074016;28;20104;-58
2023/04/06 00:39:12;;;;;;;6.97;5.80;;;;;;;;;;5074316;28;20031;-57
2023/04/06 00:41:39;;;;;;;7.35;5.38;;;;;;;;;;5074334;28;20043;-58
2023/04/06 00:44:05;;;;;;;7.85;5.80;;;;;;;;;;5074206;28;20188;-58
2023/04/06 00:46:31;;;;;;;9.25;6.75;;;;;;;;;;5074546;28;20024;-57
2023/04/06 00:48:57;;;;;;;9.27;5.15;;;;;;;;;;5074215;28;20026;-58
2023/04/06 00:51:23;;;;;;;5.90;5.25;;;;;;;;;;5073218;28;20483;-58
2023/04/06 00:53:49;;;;;;;7.13;4.57;;;;;;;;;;5074089;28;20029;-57
2023/04/06 00:56:15;;;;;;;6.70;6.00;;;;;;;;;;5074174;28;20036;-57
2023/04/06 00:58:41;;;;;;;7.88;6.40;;;;;;;;;;5074033;28;20020;-58
2023/04/06 01:01:07;;;;;;;9.05;6.75;;;;;;;;;;5074228;28;20041;-58
2023/04/06 01:03:33;;;;;;;8.05;5.45;;;;;;;;;;5073866;28;20025;-58
2023/04/06 01:05:59;;;;;;;8.85;5.88;;;;;;;;;;5074557;28;20024;-57
2023/04/06 01:08:25;;;;;;;6.30;4.75;;;;;;;;;;5074154;28;20158;-56
2023/04/06 01:10:51;;;;;;;8.93;6.05;;;;;;;;;;5074050;28;20032;-58
2023/04/06 01:13:17;;;;;;;6.82;4.75;;;;;;;;;;5073889;28;20115;-57
2023/04/06 01:15:43;;;;;;;6.47;5.45;;;;;;;;;;5074456;28;20379;-57
2023/04/06 01:18:10;;;;;;;7.72;6.00;;;;;;;;;;5073729;28;20031;-57
2023/04/06 01:20:36;;;;;;;7.63;5.28;;;;;;;;;;5073686;28;20071;-57
2023/04/06 01:23:02;;;;;;;8.02;5.68;;;;;;;;;;5073714;28;20459;-57
2023/04/06 01:25:28;;;;;;;9.55;6.75;;;;;;;;;;5074539;28;20074;-58
2023/04/06 01:27:55;;;;;;;7.80;6.18;;;;;;;;;;5073946;28;20113;-58
2023/04/06 01:30:21;;;;;;;6.22;5.32;;;;;;;;;;5073615;28;20450;-58
2023/04/06 01:32:47;;;;;;;6.50;4.82;;;;;;;;;;5073859;28;20035;-56
2023/04/06 01:35:13;;;;;;;7.47;5.18;;;;;;;;;;5073700;28;20348;-58
2023/04/06 01:37:40;;;;;;;7.53;6.30;;;;;;;;;;5073646;28;20103;-58
2023/04/06 01:40:06;;;;;;;7.13;5.55;;;;;;;;;;5073812;28;20028;-56
2023/04/06 01:42:32;;;;;;;9.30;6.35;;;;;;;;;;5074044;28;20074;-58
2023/04/06 01:44:58;;;;;;;6.97;6.00;;;;;;;;;;5073537;28;20033;-58
2023/04/06 01:47:24;;;;;;;6.95;5.70;;;;;;;;;;5073210;28;20028;-58
2023/04/06 01:49:50;;;;;;;9.02;6.90;;;;;;;;;;5074217;28;20029;-57
2023/04/06 01:52:16;;;;;;;6.20;4.93;;;;;;;;;;5073947;28;20089;-58
2023/04/06 01:54:42;;;;;;;6.75;5.57;;;;;;;;;;5073758;28;20531;-58
2023/04/06 01:57:08;;;;;;;8.20;6.47;;;;;;;;;;5073799;28;20115;-58
2023/04/06 01:59:34;;;;;;;5.68;5.18;;;;;;;;;;5073341;28;20032;-57
2023/04/06 02:02:00;;;;;;;7.38;6.25;;;;;;;;;;5073779;28;20029;-57
2023/04/06 02:04:26;;;;;;;8.70;6.95;;;;;;;;;;5077560;28;20051;-57
2023/04/06 02:06:52;;;;;;;11.13;7.43;;;;;;;;;;5077357;28;20051;-58
2023/04/06 02:09:18;;;;;;;6.35;4.85;;;;;;;;;;5077236;28;20031;-58
2023/04/06 02:11:44;;;;;;;7.97;6.97;;;;;;;;;;5077315;28;20032;-57
2023/04/06 02:14:10;;;;;;;5.70;5.10;;;;;;;;;;5076956;28;20048;-57
2023/04/06 02:16:36;;;;;;;8.82;5.72;;;;;;;;;;5077319;28;20037;-58
2023/04/06 02:19:02;;;;;;;9.38;6.45;;;;;;;;;;5077612;28;20029;-57
2023/04/06 02:21:28;;;;;;;10.18;6.47;;;;;;;;;;5076997;28;20062;-54
2023/04/06 02:23:54;;;;;;;7.17;6.13;;;;;;;;;;5076953;28;20643;-57
2023/04/06 02:26:20;;;;;;;9.20;6.82;;;;;;;;;;5077254;28;20099;-57
2023/04/06 02:28:46;;;;;;;8.40;5.53;;;;;;;;;;5076872;28;20512;-56
2023/04/06 02:31:14;;;;;;;7.55;6.70;;;;;;;;;;5076801;28;20085;-57
2023/04/06 02:33:40;;;;;;;6.60;5.30;;;;;;;;;;5076753;28;20028;-56
2023/04/06 02:36:06;;;;;;;8.43;5.90;;;;;;;;;;5076509;28;20025;-56
2023/04/06 02:38:32;;;;;;;7.60;6.07;;;;;;;;;;5076592;28;20039;-57
2023/04/06 02:40:58;;;;;;;6.90;5.70;;;;;;;;;;5076625;28;20041;-57
2023/04/06 02:43:24;;;;;;;10.20;7.70;;;;;;;;;;5076592;28;20021;-57
2023/04/06 02:45:50;;;;;;;7.10;5.63;;;;;;;;;;5076622;28;20099;-57
2023/04/06 02:48:16;;;;;;;5.93;5.20;;;;;;;;;;5076518;28;20526;-57
2023/04/06 02:50:42;;;;;;;6.77;5.90;;;;;;;;;;5076330;28;20036;-56
2023/04/06 02:53:08;;;;;;;8.90;8.00;;;;;;;;;;5076656;28;20029;-57
2023/04/06 02:55:34;;;;;;;8.68;6.47;;;;;;;;;;5076502;28;20025;-58
2023/04/06 02:58:00;;;;;;;7.10;5.93;;;;;;;;;;5077108;28;20135;-57
2023/04/06 03:00:26;;;;;;;12.15;6.82;;;;;;;;;;5076330;28;20071;-55
2023/04/06 03:02:53;;;;;;;8.13;6.03;;;;;;;;;;5076294;28;20025;-56
2023/04/06 03:05:19;;;;;;;6.22;4.90;;;;;;;;;;5076872;28;20454;-56
2023/04/06 03:07:45;;;;;;;8.45;6.32;;;;;;;;;;5076913;28;20037;-56
2023/04/06 03:10:11;;;;;;;5.43;4.70;;;;;;;;;;5076854;28;20025;-56
2023/04/06 03:12:37;;;;;;;9.55;5.22;;;;;;;;;;5076382;28;20048;-57
2023/04/06 03:15:03;;;;;;;7.65;6.38;;;;;;;;;;5075493;28;20056;-56
2023/04/06 03:17:29;;;;;;;6.95;6.25;;;;;;;;;;5076249;28;20025;-57
2023/04/06 03:19:55;;;;;;;6.25;4.22;;;;;;;;;;5076201;28;20024;-54
2023/04/06 03:22:21;;;;;;;8.90;5.95;;;;;;;;;;5076389;28;20036;-57
2023/04/06 03:24:47;;;;;;;7.85;5.43;;;;;;;;;;5075855;28;20028;-55
2023/04/06 03:27:13;;;;;;;5.83;4.77;;;;;;;;;;5075748;28;20474;-56
2023/04/06 03:29:39;;;;;;;9.77;6.35;;;;;;;;;;5075749;28;20032;-57
2023/04/06 03:32:05;;;;;;;10.80;6.20;;;;;;;;;;5075646;28;20037;-56
2023/04/06 03:34:31;;;;;;;7.50;4.97;;;;;;;;;;5075738;28;20455;-58
2023/04/06 03:36:57;;;;;;;7.53;6.15;;;;;;;;;;5075616;28;20025;-58
2023/04/06 03:39:23;;;;;;;6.43;5.70;;;;;;;;;;5076158;28;20073;-58
2023/04/06 03:41:49;;;;;;;5.68;4.68;;;;;;;;;;5075566;28;20029;-58
2023/04/06 03:44:16;;;;;;;6.17;4.77;;;;;;;;;;5075567;28;20104;-58
2023/04/06 03:46:42;;;;;;;6.18;4.78;;;;;;;;;;5075798;28;20382;-58
2023/04/06 03:49:08;;;;;;;5.87;4.27;;;;;;;;;;5075736;28;20099;-59
2023/04/06 03:51:34;;;;;;;14.00;5.90;;;;;;;;;;5075370;28;20037;-57
2023/04/06 03:54:00;;;;;;;8.48;5.97;;;;;;;;;;5075363;28;20028;-58
2023/04/06 03:56:26;;;;;;;6.87;5.43;;;;;;;;;;5075684;28;20029;-56
2023/04/06 03:58:52;;;;;;;7.97;5.95;;;;;;;;;;5075204;28;20390;-58
2023/04/06 04:01:18;;;;;;;8.83;6.13;;;;;;;;;;5075612;28;20082;-58
2023/04/06 04:03:44;;;;;;;5.33;4.83;;;;;;;;;;5075331;28;20090;-58
2023/04/06 04:06:10;;;;;;;8.10;5.22;;;;;;;;;;5074746;28;20064;-59
2023/04/06 04:08:36;;;;;;;6.82;5.07;;;;;;;;;;5074989;28;20060;-57
2023/04/06 04:11:02;;;;;;;7.28;4.85;;;;;;;;;;5075018;28;20043;-53
2023/04/06 04:13:28;;;;;;;7.90;5.75;;;;;;;;;;5075041;28;20033;-55
2023/04/06 04:15:54;;;;;;;7.70;6.22;;;;;;;;;;5074984;28;20454;-53
2023/04/06 04:18:20;;;;;;;5.37;4.40;;;;;;;;;;5074877;28;20032;-57
2023/04/06 04:20:46;;;;;;;8.63;7.00;;;;;;;;;;5074828;28;20402;-55
2023/04/06 04:23:12;;;;;;;5.47;4.65;;;;;;;;;;5075111;28;20025;-56
2023/04/06 04:25:38;;;;;;;7.95;4.70;;;;;;;;;;5074801;28;20032;-55
2023/04/06 04:28:04;;;;;;;7.95;5.50;;;;;;;;;;5074744;28;20458;-56
2023/04/06 04:30:30;;;;;;;5.00;4.45;;;;;;;;;;5074608;28;20063;-55
2023/04/06 04:32:56;;;;;;;8.20;6.20;;;;;;;;;;5074614;28;20457;-57
2023/04/06 04:35:22;;;;;;;7.83;5.37;;;;;;;;;;5075175;28;20064;-56
2023/04/06 04:37:49;;;;;;;8.83;5.03;;;;;;;;;;5074413;28;20071;-54
2023/04/06 04:40:16;;;;;;;9.30;5.00;;;;;;;;;;5074412;28;20024;-56
2023/04/06 04:42:42;;;;;;;8.13;5.82;;;;;;;;;;5074607;28;20103;-57
2023/04/06 04:45:08;;;;;;;6.30;5.47;;;;;;;;;;5075202;28;20028;-56
2023/04/06 04:47:34;;;;;;;8.55;5.65;;;;;;;;;;5074769;28;20031;-57
2023/04/06 04:50:00;;;;;;;5.30;4.70;;;;;;;;;;5074279;28;20025;-55
2023/04/06 04:52:26;;;;;;;6.63;5.90;;;;;;;;;;5074218;28;20032;-57
2023/04/06 04:54:52;;;;;;;6.78;4.78;;;;;;;;;;5074249;28;20043;-55
2023/04/06 04:57:18;;;;;;;5.37;4.73;;;;;;;;;;5074273;28;20028;-56
2023/04/06 04:59:45;;;;;;;6.90;4.70;;;;;;;;;;5074165;28;20024;-51
2023/04/06 05:02:11;;;;;;;5.40;4.83;;;;;;;;;;5074878;28;20340;-54
2023/04/06 05:04:37;;;;;;;13.37;6.50;;;;;;;;;;5074098;28;20051;-51
2023/04/06 05:07:04;;;;;;;6.68;4.85;;;;;;;;;;5074429;28;20021;-53
2023/04/06 05:09:31;;;;;;;9.07;7.15;;;;;;;;;;5074048;28;20024;-52
2023/04/06 05:11:57;;;;;;;6.00;5.22;;;;;;;;;;5074124;28;20032;-54
2023/04/06 05:14:23;;;;;;;8.57;5.45;;;;;;;;;;5074102;28;20431;-56
2023/04/06 05:16:49;;;;;;;4.82;3.97;;;;;;;;;;5074504;28;20052;-52
2023/04/06 05:19:15;;;;;;;7.07;5.95;;;;;;;;;;5073637;28;20486;-54
2023/04/06 05:21:41;;;;;;;6.80;6.20;;;;;;;;;;5073534;28;20029;-54
2023/04/06 05:24:08;;;;;;;5.07;4.13;;;;;;;;;;5073891;28;20148;-51
2023/04/06 05:26:34;;;;;;;6.15;5.55;;;;;;;;;;5074263;28;20455;-54
2023/04/06 05:29:00;;;;;;;10.73;6.40;;;;;;;;;;5074235;28;20024;-52
2023/04/06 05:31:26;;;;;;;7.30;4.70;;;;;;;;;;5073717;28;20037;-51
2023/04/06 05:33:52;;;;;;;9.45;4.72;;;;;;;;;;5073688;28;20039;-55
2023/04/06 05:36:18;;;;;;;6.07;5.28;;;;;;;;;;5073946;28;20466;-54
2023/04/06 05:38:44;;;;;;;5.90;5.00;;;;;;;;;;5080191;28;20054;-54
2023/04/06 05:41:10;;;;;;;6.35;5.25;;;;;;;;;;5080294;28;20081;-55
2023/04/06 05:43:37;;;;;;;6.45;5.35;;;;;;;;;;5080715;28;20082;-53
2023/04/06 05:46:03;;;;;;;6.05;5.28;;;;;;;;;;5080564;28;20029;-51
2023/04/06 05:48:29;;;;;;;7.00;5.80;;;;;;;;;;5080506;28;20028;-56
2023/04/06 05:50:55;;;;;;;9.05;6.10;;;;;;;;;;5080125;28;20359;-54
2023/04/06 05:53:21;;;;;;;7.40;5.95;;;;;;;;;;5080067;28;20516;-57
2023/04/06 05:55:47;;;;;;;8.30;5.55;;;;;;;;;;5080350;28;20021;-58
2023/04/06 05:58:14;;;;;;;7.57;6.78;;;;;;;;;;5079928;28;20378;-57
2023/04/06 06:00:40;;;;;;;9.32;6.05;;;;;;;;;;5080070;28;20028;-56
2023/04/06 06:03:08;;;;;;;8.15;6.22;;;;;;;;;;5080159;28;20081;-53
2023/04/06 06:05:34;;;;;;;7.07;5.40;;;;;;;;;;5080361;28;20107;-56
2023/04/06 06:08:01;;;;;;;13.63;6.75;;;;;;;;;;5080018;28;20040;-57
2023/04/06 06:10:28;;;;;;;14.50;6.15;;;;;;;;;;5079830;28;20107;-56
2023/04/06 06:12:54;;;;;;;7.22;6.15;;;;;;;;;;5080252;28;20099;-56
2023/04/06 06:15:20;;;;;;;12.80;6.22;;;;;;;;;;5080741;28;20041;-52
2023/04/06 06:17:46;;;;;;;9.68;7.53;;;;;;;;;;5079957;28;20082;-55
2023/04/06 06:20:12;;;;;;;14.13;7.28;;;;;;;;;;5079880;28;20032;-55
2023/04/06 06:22:40;;;;;;;10.68;7.45;;;;;;;;;;5079846;28;20028;-55
2023/04/06 06:25:06;;;;;;;7.93;7.10;;;;;;;;;;5079896;28;20436;-55
2023/04/06 06:27:32;;;;;;;8.68;7.22;;;;;;;;;;5080131;28;20390;-56
2023/04/06 06:29:58;;;;;;;13.15;8.40;;;;;;;;;;5079877;28;20028;-56
2023/04/06 06:32:24;;;;;;;7.43;6.47;;;;;;;;;;5079701;28;20047;-53
2023/04/06 06:34:50;;;;;;;11.45;9.27;;;;;;;;;;5079738;28;20028;-56
2023/04/06 06:37:16;;;;;;;8.35;7.30;;;;;;;;;;5079960;28;20081;-56
2023/04/06 06:39:42;;;;;;;11.20;8.45;;;;;;;;;;5078370;28;20033;-52
2023/04/06 06:42:08;;;;;;;8.13;6.68;;;;;;;;;;5079710;28;20041;-54
2023/04/06 06:44:34;;;;;;;9.55;7.80;;;;;;;;;;5079964;28;20082;-56
2023/04/06 06:47:00;;;;;;;9.23;6.18;;;;;;;;;;5080223;28;20367;-54
2023/04/06 06:49:26;;;;;;;7.47;6.72;;;;;;;;;;5075974;28;20096;-54
2023/04/06 06:51:52;;;;;;;8.02;7.10;;;;;;;;;;5076303;28;20115;-55
2023/04/06 06:54:18;;;;;;;17.92;8.02;;;;;;;;;;5076435;28;20031;-57
2023/04/06 06:56:44;;;;;;;15.07;9.07;;;;;;;;;;5076538;28;20028;-52
2023/04/06 06:59:10;;;;;;;10.18;6.53;;;;;;;;;;5076363;28;20032;-56
2023/04/06 07:01:37;;;;;;;10.30;6.75;;;;;;;;;;5076826;28;20028;-51
2023/04/06 07:04:02;;;;;;;7.60;6.40;;;;;;;;;;5076849;28;20029;-54
2023/04/06 07:06:29;;;;;;;9.50;7.35;;;;;;;;;;5076073;28;20504;-52
2023/04/06 07:08:55;;;;;;;9.43;6.95;;;;;;;;;;5076188;28;20343;-56
2023/04/06 07:11:21;;;;;;;7.38;6.38;;;;;;;;;;5076070;28;20374;-51
2023/04/06 07:13:47;;;;;;;12.40;6.72;;;;;;;;;;5076616;28;20052;-55
2023/04/06 07:16:13;;;;;;;9.95;8.20;;;;;;;;;;5076631;28;20039;-54
2023/04/06 07:18:39;;;;;;;10.65;7.47;;;;;;;;;;5075866;28;20021;-54
2023/04/06 07:21:05;;;;;;;10.95;7.03;;;;;;;;;;5075857;28;20037;-54
2023/04/06 07:23:31;;;;;;;9.23;5.78;;;;;;;;;;5075825;28;20078;-52
2023/04/06 07:25:57;;;;;;;8.05;6.38;;;;;;;;;;5075628;28;20032;-54
2023/04/06 07:28:23;;;;;;;8.52;7.72;;;;;;;;;;5075811;28;20055;-53
2023/04/06 07:30:50;;;;;;;9.73;6.72;;;;;;;;;;5075636;28;20060;-50
2023/04/06 07:33:16;;;;;;;10.38;8.05;;;;;;;;;;5074944;28;20056;-55
2023/04/06 07:35:42;;;;;;;9.80;6.30;;;;;;;;;;5075751;28;20379;-55
2023/04/06 07:38:08;;;;;;;9.90;7.63;;;;;;;;;;5075192;28;20029;-55
2023/04/06 07:40:34;;;;;;;11.30;7.07;;;;;;;;;;5074085;28;20036;-53
2023/04/06 07:43:01;;;;;;;8.35;7.45;;;;;;;;;;5075459;28;20124;-53
2023/04/06 07:45:27;;;;;;;10.48;7.88;;;;;;;;;;5075811;28;20060;-56
2023/04/06 07:47:53;;;;;;;10.30;8.10;;;;;;;;;;5075410;28;20561;-56
2023/04/06 07:50:19;;;;;;;12.80;7.10;;;;;;;;;;5075454;28;20172;-55
2023/04/06 07:52:45;;;;;;;7.68;6.80;;;;;;;;;;5075354;28;20432;-56
2023/04/06 07:55:11;;;;;;;19.10;6.82;;;;;;;;;;5075080;28;20385;-54
2023/04/06 07:57:37;;;;;;;11.75;7.53;;;;;;;;;;5075292;28;20025;-54
2023/04/06 08:00:04;;;;;;;9.10;6.63;;;;;;;;;;5074871;28;20016;-56
2023/04/06 08:02:30;;;;;;;8.93;7.40;;;;;;;;;;5074893;28;20024;-57
2023/04/06 08:04:56;;;;;;;9.65;6.88;;;;;;;;;;5075061;28;20099;-55
2023/04/06 08:07:22;;;;;;;7.78;6.40;;;;;;;;;;5075473;28;20027;-56
2023/04/06 08:09:48;;;;;;;7.43;6.40;;;;;;;;;;5075058;28;20111;-55
2023/04/06 08:12:14;;;;;;;9.80;7.43;;;;;;;;;;5074892;28;20032;-55
2023/04/06 08:14:40;;;;;;;9.32;7.28;;;;;;;;;;5074892;28;20047;-55
2023/04/06 08:17:06;;;;;;;7.50;5.88;;;;;;;;;;5074795;28;20024;-56
2023/04/06 08:19:32;;;;;;;8.48;7.38;;;;;;;;;;5075041;28;20086;-54
2023/04/06 08:21:58;;;;;;;13.15;7.43;;;;;;;;;;5074715;28;20028;-58
2023/04/06 08:24:24;;;;;;;11.80;7.88;;;;;;;;;;5074806;28;20421;-58
2023/04/06 08:26:51;;;;;;;9.30;7.03;;;;;;;;;;5074725;28;20029;-57
2023/04/06 08:29:17;;;;;;;11.52;8.13;;;;;;;;;;5074595;28;20074;-58
2023/04/06 08:31:43;;;;;;;11.40;7.13;;;;;;;;;;5074819;28;20039;-58
2023/04/06 08:34:10;;;;;;;9.38;7.97;;;;;;;;;;5074576;28;20020;-56
2023/04/06 08:36:36;;;;;;;10.80;7.63;;;;;;;;;;5074935;28;20162;-58
2023/04/06 08:39:02;;;;;;;8.35;6.68;;;;;;;;;;5074468;28;20024;-57
2023/04/06 08:41:28;;;;;;;11.23;8.07;;;;;;;;;;5073864;28;20036;-59
2023/04/06 08:43:58;;;;;;;11.43;7.35;;;;;;;;;;5074292;28;20028;-58
2023/04/06 08:46:30;;;;;;;7.87;7.07;;;;;;;;;;5074611;28;20020;-58
2023/04/06 08:48:57;;;;;;;10.38;7.35;;;;;;;;;;5074643;28;20028;-57
2023/04/06 08:51:26;;;;;;;9.25;5.93;;;;;;;;;;5074140;28;20032;-57
2023/04/06 08:53:54;;;;;;;8.85;6.72;;;;;;;;;;5074171;28;20374;-56
2023/04/06 08:56:20;;;;;;;9.85;6.97;;;;;;;;;;5074721;28;20028;-57
2023/04/06 08:58:47;;;;;;;9.27;6.85;;;;;;;;;;5074216;28;20035;-56
2023/04/06 09:01:15;;;;;;;8.77;7.25;;;;;;;;;;5074113;28;20115;-57
2023/04/06 09:03:41;;;;;;;9.38;6.53;;;;;;;;;;5073989;28;20025;-56
2023/04/06 09:06:07;;;;;;;8.82;6.95;;;;;;;;;;5073897;28;20543;-56
2023/04/06 09:08:34;;;;;;;9.80;6.57;;;;;;;;;;5074696;28;20029;-57
2023/04/06 09:11:01;;;;;;;12.02;6.68;;;;;;;;;;5074287;28;20474;-57
2023/04/06 09:13:27;;;;;;;10.05;6.97;;;;;;;;;;5072814;28;20035;-59
2023/04/06 09:16:03;;;;;;;9.18;6.85;;;;;;;;;;5074125;28;20017;-56
2023/04/06 09:18:30;;;;;;;10.48;7.53;;;;;;;;;;5073889;28;20070;-58
2023/04/06 09:20:57;;;;;;;10.32;7.05;;;;;;;;;;5074094;28;20472;-52
2023/04/06 09:23:23;;;;;;;8.85;6.40;;;;;;;;;;5073820;28;20025;-58
2023/04/06 09:25:49;;;;;;;8.43;6.00;;;;;;;;;;5074209;28;20031;-58
2023/04/06 09:28:15;;;;;;;9.52;6.55;;;;;;;;;;5074225;28;20474;-55
2023/04/06 09:30:49;;;;;;;9.57;6.97;;;;;;;;;;5073673;28;20028;-57
2023/04/06 09:33:22;;;;;;;9.60;7.53;;;;;;;;;;5073736;28;20039;-55
2023/04/06 09:35:51;;;;;;;9.27;6.32;;;;;;;;;;5074119;28;20040;-56
2023/04/06 09:38:17;;;;;;;12.02;7.05;;;;;;;;;;5074026;28;20348;-58
2023/04/06 09:40:50;;;;;;;10.48;7.50;;;;;;;;;;5074221;28;20043;-57
2023/04/06 09:43:24;;;;;;;12.38;8.23;;;;;;;;;;5073722;28;20032;-58
2023/04/06 09:45:50;;;;;;;10.95;7.25;;;;;;;;;;5073245;28;20052;-58
2023/04/06 09:48:17;;;;;;;8.00;6.47;;;;;;;;;;5073539;28;20035;-56
2023/04/06 09:50:43;;;;;;;10.85;7.03;;;;;;;;;;5073659;28;20040;-56
2023/04/06 09:53:09;;;;;;;7.50;6.68;;;;;;;;;;5073521;28;20025;-58
2023/04/06 09:55:37;;;;;;;8.55;6.10;;;;;;;;;;5074084;28;20443;-57
2023/04/06 09:58:07;;;;;;;11.13;7.32;;;;;;;;;;5073030;28;20454;-58
2023/04/06 10:00:35;;;;;;;10.10;6.63;;;;;;;;;;5073614;28;20335;-58
2023/04/06 10:03:13;;;;;;;7.88;5.22;;;;;;;;;;5073676;28;20032;-57
2023/04/06 10:05:48;;;;;;;8.05;5.70;;;;;;;;;;5073801;28;20454;-58
2023/04/06 10:08:15;;;;;;;7.07;5.28;;;;;;;;;;5073450;28;20021;-58
2023/04/06 10:10:42;;;;;;;6.22;4.18;;;;;;;;;;5073308;28;20039;-58
2023/04/06 10:13:10;;;;;;;7.75;5.03;;;;;;;;;;5073300;28;20116;-58
2023/04/06 10:15:38;;;;;;;8.35;5.75;;;;;;;;;;5073527;28;20093;-56
2023/04/06 10:18:04;;;;;;;8.23;6.13;;;;;;;;;;5073299;28;20025;-58
2023/04/06 10:20:47;;;;;;;6.68;4.90;;;;;;;;;;5072873;28;20115;-57
2023/04/06 10:23:15;;;;;;;11.07;6.20;;;;;;;;;;5074141;28;20020;-58
2023/04/06 10:25:52;;;;;;;7.53;5.18;;;;;;;;;;5077913;28;20035;-58
2023/04/06 10:28:19;;;;;;;6.25;4.65;;;;;;;;;;5077369;28;20043;-58
2023/04/06 10:30:46;;;;;;;5.35;4.47;;;;;;;;;;5076824;28;20091;-57
2023/04/06 10:33:19;;;;;;;8.35;5.03;;;;;;;;;;5076966;28;20028;-58
2023/04/06 10:35:45;;;;;;;5.82;5.22;;;;;;;;;;5076868;28;20041;-57
2023/04/06 10:38:13;;;;;;;6.80;4.50;;;;;;;;;;5076697;28;20055;-58
2023/04/06 10:40:40;;;;;;;6.00;4.90;;;;;;;;;;5076672;28;20370;-58
2023/04/06 10:43:13;;;;;;;5.47;4.68;;;;;;;;;;5076770;28;20082;-58
2023/04/06 10:45:40;;;;;;;7.40;6.25;;;;;;;;;;5077234;28;20087;-58
2023/04/06 10:48:16;;;;;;;7.30;5.57;;;;;;;;;;5076635;28;20436;-58
2023/04/06 10:50:48;;;;;;;6.60;5.15;;;;;;;;;;5076465;28;20064;-58
2023/04/06 10:53:22;;;;;;;8.27;5.85;;;;;;;;;;5077173;28;20028;-58
2023/04/06 10:55:49;;;;;;;7.13;5.70;;;;;;;;;;5076233;28;20078;-57
2023/04/06 10:58:15;;;;;;;5.25;4.53;;;;;;;;;;5076757;28;20028;-59
2023/04/06 11:00:48;;;;;;;8.10;5.32;;;;;;;;;;5076710;28;20039;-58
2023/04/06 11:03:14;;;;;;;6.68;6.00;;;;;;;;;;5076111;28;20536;-58
2023/04/06 11:05:50;;;;;;;7.82;5.38;;;;;;;;;;5075635;28;20016;-59
2023/04/06 11:08:26;;;;;;;7.93;6.25;;;;;;;;;;5076247;28;20413;-58
2023/04/06 11:10:52;;;;;;;7.13;5.80;;;;;;;;;;5076147;28;20064;-58
2023/04/06 11:13:18;;;;;;;8.98;5.32;;;;;;;;;;5076120;28;20039;-58
2023/04/06 11:15:44;;;;;;;6.93;4.88;;;;;;;;;;5076251;28;20398;-58
2023/04/06 11:18:11;;;;;;;6.05;4.43;;;;;;;;;;5076052;28;20016;-58
2023/04/06 11:20:37;;;;;;;5.63;4.97;;;;;;;;;;5075796;28;20485;-58
2023/04/06 11:23:03;;;;;;;5.05;4.50;;;;;;;;;;5076017;28;20367;-58
2023/04/06 11:25:32;;;;;;;7.65;4.78;;;;;;;;;;5075702;28;20024;-58
2023/04/06 11:27:58;;;;;;;8.60;4.50;;;;;;;;;;5076412;28;20036;-58
2023/04/06 11:30:24;;;;;;;6.20;4.78;;;;;;;;;;5076335;28;20423;-58
2023/04/06 11:32:50;;;;;;;5.45;4.25;;;;;;;;;;5075803;28;20544;-57
2023/04/06 11:35:25;;;;;;;7.28;4.90;;;;;;;;;;5075940;28;20371;-59
2023/04/06 11:37:51;;;;;;;5.72;3.53;;;;;;;;;;5075363;28;20553;-59
2023/04/06 11:40:24;;;;;;;6.85;4.43;;;;;;;;;;5075490;28;20374;-57
2023/04/06 11:42:54;;;;;;;5.07;3.67;;;;;;;;;;5075624;28;20039;-56
2023/04/06 11:45:20;;;;;;;5.60;4.68;;;;;;;;;;5075710;28;20082;-58
2023/04/06 11:47:55;;;;;;;6.95;4.78;;;;;;;;;;5075750;28;20077;-59
2023/04/06 11:50:21;;;;;;;6.10;4.15;;;;;;;;;;5075860;28;20024;-59
2023/04/06 11:52:58;;;;;;;5.95;4.03;;;;;;;;;;5075293;28;20059;-56
2023/04/06 11:55:24;;;;;;;5.63;3.80;;;;;;;;;;5075758;28;20028;-58
2023/04/06 11:57:51;;;;;;;7.03;4.03;;;;;;;;;;5075244;28;20032;-58
2023/04/06 12:00:17;;;;;;;6.28;4.45;;;;;;;;;;5075536;28;20028;-58
2023/04/06 12:02:46;;;;;;;4.60;4.13;;;;;;;;;;5075249;28;20470;-58
2023/04/06 12:05:12;;;;;;;7.82;5.13;;;;;;;;;;5076007;28;20028;-59
2023/04/06 12:07:38;;;;;;;5.10;4.20;;;;;;;;;;5075177;28;20036;-59
2023/04/06 12:10:05;;;;;;;5.80;4.38;;;;;;;;;;5075514;28;20025;-59
2023/04/06 12:12:31;;;;;;;6.18;4.65;;;;;;;;;;5075044;28;20524;-58
2023/04/06 12:14:58;;;;;;;7.85;5.22;;;;;;;;;;5074845;28;20129;-59
2023/04/06 12:17:24;;;;;;;7.30;4.55;;;;;;;;;;5074797;28;20033;-59
2023/04/06 12:19:50;;;;;;;6.72;4.47;;;;;;;;;;5075010;28;20039;-58
2023/04/06 12:22:16;;;;;;;5.82;3.60;;;;;;;;;;5075307;28;20064;-59
2023/04/06 12:24:42;;;;;;;6.68;4.47;;;;;;;;;;5075091;28;20040;-59
2023/04/06 12:27:10;;;;;;;7.47;4.53;;;;;;;;;;5074794;28;20028;-59
2023/04/06 12:29:36;;;;;;;7.13;4.45;;;;;;;;;;5074728;28;20029;-59
2023/04/06 12:32:02;;;;;;;7.35;5.43;;;;;;;;;;5074367;28;20047;-59
2023/04/06 12:34:28;;;;;;;5.78;4.47;;;;;;;;;;5075176;28;20052;-59
2023/04/06 12:36:55;;;;;;;5.82;4.53;;;;;;;;;;5074738;28;20363;-59
2023/04/06 12:39:21;;;;;;;6.93;4.90;;;;;;;;;;5074453;28;20455;-58
2023/04/06 12:41:47;;;;;;;7.07;4.80;;;;;;;;;;5074439;28;20378;-59
2023/04/06 12:44:13;;;;;;;4.82;3.90;;;;;;;;;;5074733;28;20036;-58
2023/04/06 12:46:40;;;;;;;7.85;4.40;;;;;;;;;;5074372;28;20125;-59
2023/04/06 12:49:07;;;;;;;7.38;4.65;;;;;;;;;;5074278;28;20025;-59
2023/04/06 12:51:33;;;;;;;6.45;4.43;;;;;;;;;;5074799;28;20083;-59
2023/04/06 12:53:59;;;;;;;6.80;3.78;;;;;;;;;;5074458;28;20024;-59
2023/04/06 12:56:25;;;;;;;6.60;4.30;;;;;;;;;;5074675;28;20056;-59
2023/04/06 12:58:52;;;;;;;10.02;4.05;;;;;;;;;;5074049;28;20021;-58
2023/04/06 13:01:18;;;;;;;8.80;4.82;;;;;;;;;;5073831;28;20028;-59
2023/04/06 13:03:44;;;;;;;6.97;4.88;;;;;;;;;;5073993;28;20451;-59
2023/04/06 13:06:10;;;;;;;6.05;4.28;;;;;;;;;;5074343;28;20104;-59
2023/04/06 13:08:37;;;;;;;12.30;4.57;;;;;;;;;;5074737;28;20398;-59
2023/04/06 13:11:04;;;;;;;6.50;4.25;;;;;;;;;;5074697;28;20086;-59
2023/04/06 13:13:30;;;;;;;7.05;3.95;;;;;;;;;;5073723;28;20036;-59
2023/04/06 13:16:00;;;;;;;4.95;3.47;;;;;;;;;;5074390;28;20024;-59
2023/04/06 13:18:26;;;;;;;6.35;4.60;;;;;;;;;;5074391;28;20375;-59
2023/04/06 13:20:52;;;;;;;7.40;3.80;;;;;;;;;;5073875;28;20036;-59
2023/04/06 13:23:18;;;;;;;7.18;4.13;;;;;;;;;;5074388;28;20020;-57
2023/04/06 13:25:45;;;;;;;6.28;4.20;;;;;;;;;;5074683;28;20162;-56
2023/04/06 13:28:11;;;;;;;6.30;4.70;;;;;;;;;;5073673;28;20032;-56
2023/04/06 13:30:37;;;;;;;8.15;4.20;;;;;;;;;;5073920;28;20040;-56
2023/04/06 13:33:04;;;;;;;6.22;4.00;;;;;;;;;;5073845;28;20024;-57
2023/04/06 13:35:30;;;;;;;6.07;4.85;;;;;;;;;;5074444;28;20032;-56
2023/04/06 13:37:56;;;;;;;7.43;3.55;;;;;;;;;;5073428;28;20033;-56
2023/04/06 13:40:22;;;;;;;8.80;4.80;;;;;;;;;;5073941;28;20033;-56
2023/04/06 13:42:48;;;;;;;7.75;4.13;;;;;;;;;;5074125;28;20537;-56
2023/04/06 13:45:14;;;;;;;5.80;3.92;;;;;;;;;;5073697;28;20051;-56
2023/04/06 13:47:40;;;;;;;5.78;3.85;;;;;;;;;;5073670;28;20063;-57
2023/04/06 13:50:07;;;;;;;7.50;4.10;;;;;;;;;;5073651;28;20074;-56
2023/04/06 13:52:33;;;;;;;4.50;3.38;;;;;;;;;;5073584;28;20043;-56
2023/04/06 13:54:59;;;;;;;5.63;3.88;;;;;;;;;;5074014;28;20028;-56
2023/04/06 13:57:25;;;;;;;5.72;3.95;;;;;;;;;;5073519;28;20474;-56
2023/04/06 13:59:51;;;;;;;5.53;4.43;;;;;;;;;;5077018;28;20064;-56
2023/04/06 14:02:18;;;;;;;6.00;4.03;;;;;;;;;;5077558;28;20033;-57
2023/04/06 14:04:44;;;;;;;6.45;4.07;;;;;;;;;;5077451;28;20112;-56
2023/04/06 14:07:10;;;;;;;6.22;4.28;;;;;;;;;;5077743;28;20455;-56
2023/04/06 14:09:36;;;;;;;7.15;3.95;;;;;;;;;;5077402;28;20082;-57
2023/04/06 14:12:01;;;;;;;6.90;3.80;;;;;;;;;;5077359;28;20044;-56
2023/04/06 14:14:28;;;;;;;6.35;4.80;;;;;;;;;;5077150;28;20501;-57
2023/04/06 14:16:54;;;;;;;6.80;4.22;;;;;;;;;;5077521;28;20033;-57
2023/04/06 14:19:23;;;;;;;6.88;3.97;;;;;;;;;;5077972;28;20107;-57
2023/04/06 14:21:49;;;;;;;6.45;4.00;;;;;;;;;;5077377;28;20032;-57
2023/04/06 14:24:16;;;;;;;7.82;3.78;;;;;;;;;;5077752;28;20100;-57
2023/04/06 14:26:42;;;;;;;8.80;4.32;;;;;;;;;;5077749;28;20029;-58
2023/04/06 14:29:09;;;;;;;5.45;3.67;;;;;;;;;;5076753;28;20374;-58
2023/04/06 14:31:35;;;;;;;7.97;4.18;;;;;;;;;;5076630;28;20040;-57
2023/04/06 14:34:02;;;;;;;5.47;4.40;;;;;;;;;;5076839;28;20032;-57
2023/04/06 14:36:29;;;;;;;6.38;4.75;;;;;;;;;;5077040;28;20028;-57